createdAt,value
2022-12-29T07:59:14.434Z,0.50
2022-12-29T08:01:41.498Z,0.60
2022-12-29T08:04:08.648Z,0.60
2022-12-29T08:06:35.609Z,0.70
2022-12-29T08:09:09.809Z,0.40
2022-12-29T08:11:39.672Z,0.60
2022-12-29T08:14:06.588Z,0.60
2022-12-29T08:16:33.566Z,0.50
2022-12-29T08:19:00.603Z,0.50
2022-12-29T08:21:28.680Z,0.73
2022-12-29T08:23:55.631Z,0.60
2022-12-29T08:26:22.816Z,0.35
2022-12-29T08:28:53.918Z,0.70
2022-12-29T08:31:20.989Z,0.45
2022-12-29T08:33:47.899Z,0.60
2022-12-29T08:36:14.960Z,0.70
2022-12-29T08:38:42.149Z,0.50
2022-12-29T08:41:09.284Z,0.65
2022-12-29T08:43:36.247Z,0.70
2022-12-29T08:46:03.144Z,0.60
2022-12-29T08:48:30.010Z,0.70
2022-12-29T08:50:56.843Z,0.70
2022-12-29T08:53:23.942Z,0.90
2022-12-29T08:56:04.181Z,0.60
2022-12-29T08:58:32.466Z,0.60
2022-12-29T09:00:59.909Z,0.75
2022-12-29T09:03:54.890Z,0.88
2022-12-29T09:06:15.269Z,0.50
2022-12-29T09:08:42.249Z,1.20
2022-12-29T09:11:10.108Z,0.93
2022-12-29T09:13:37.213Z,1.08
2022-12-29T09:16:04.379Z,0.80
2022-12-29T09:18:31.753Z,1.02
2022-12-29T09:21:03.624Z,0.60
2022-12-29T09:23:30.968Z,1.02
2022-12-29T09:25:57.943Z,1.23
2022-12-29T09:28:25.050Z,0.70
2022-12-29T09:30:52.631Z,0.90
2022-12-29T09:33:19.739Z,1.10
2022-12-29T09:35:52.492Z,1.15
2022-12-29T09:38:19.556Z,1.05
2022-12-29T09:40:51.883Z,0.60
2022-12-29T09:43:52.056Z,0.75
2022-12-29T09:46:26.843Z,0.90
2022-12-29T09:49:18.981Z,0.80
2022-12-29T09:51:49.761Z,0.70
2022-12-29T09:54:31.800Z,0.80
2022-12-29T09:56:58.853Z,1.02
2022-12-29T09:59:41.201Z,0.60
2022-12-29T10:02:17.421Z,1.43
2022-12-29T10:04:44.627Z,0.93
2022-12-29T10:07:36.020Z,1.17
2022-12-29T10:10:16.712Z,0.90
2022-12-29T10:12:49.414Z,0.93
2022-12-29T10:15:31.554Z,1.10
2022-12-29T10:18:35.691Z,1.00
2022-12-29T10:21:16.780Z,1.83
2022-12-29T10:23:49.509Z,0.95
2022-12-29T10:26:30.003Z,0.93
2022-12-29T10:29:23.501Z,1.45
2022-12-29T10:34:54.744Z,0.90
2022-12-29T10:37:47.539Z,1.27
2022-12-29T10:40:21.280Z,1.15
2022-12-29T10:42:53.412Z,0.88
2022-12-29T10:45:20.926Z,2.17
2022-12-29T10:48:01.553Z,1.13
2022-12-29T10:50:30.527Z,1.55
2022-12-29T10:53:00.154Z,2.22
2022-12-29T10:55:33.513Z,1.40
2022-12-29T10:58:05.792Z,0.70
2022-12-29T11:00:34.191Z,1.00
2022-12-29T11:03:47.877Z,1.15
2022-12-29T11:06:25.616Z,0.80
2022-12-29T11:08:57.797Z,1.20
2022-12-29T11:11:36.476Z,0.83
2022-12-29T11:14:14.464Z,3.03
2022-12-29T11:16:42.871Z,2.20
2022-12-29T11:19:25.785Z,1.98
2022-12-29T11:21:53.000Z,1.33
2022-12-29T11:24:27.417Z,1.75
2022-12-29T11:27:11.957Z,1.17
2022-12-29T11:29:42.279Z,1.42
2022-12-29T11:32:30.708Z,1.75
2022-12-29T11:35:02.028Z,1.52
2022-12-29T11:37:40.078Z,1.33
2022-12-29T11:40:18.241Z,1.42
2022-12-29T11:42:56.298Z,1.80
2022-12-29T11:45:28.185Z,1.35
2022-12-29T11:47:58.972Z,1.30
2022-12-29T11:50:35.365Z,1.40
2022-12-29T11:53:08.995Z,1.55
2022-12-29T11:55:35.980Z,1.65
2022-12-29T11:58:04.230Z,1.63
2022-12-29T12:00:34.874Z,1.38
2022-12-29T12:03:12.468Z,1.48
2022-12-29T12:05:53.686Z,1.40
2022-12-29T12:08:37.617Z,1.42
2022-12-29T12:11:22.990Z,1.33
2022-12-29T12:14:04.022Z,1.77
2022-12-29T12:16:55.194Z,1.35
2022-12-29T12:19:48.619Z,1.50
2022-12-29T12:22:25.279Z,1.40
2022-12-29T12:25:00.982Z,1.17
2022-12-29T12:27:32.845Z,1.92
2022-12-29T12:30:02.555Z,1.80
2022-12-29T12:32:57.149Z,1.52
2022-12-29T12:35:33.196Z,1.70
2022-12-29T12:38:24.271Z,1.52
2022-12-29T12:41:22.212Z,1.60
2022-12-29T12:44:00.114Z,1.42
2022-12-29T12:46:38.993Z,1.40
2022-12-29T12:49:19.270Z,1.35
2022-12-29T12:52:02.960Z,1.65
2022-12-29T12:54:53.078Z,1.45
2022-12-29T12:57:41.937Z,1.50
2022-12-29T13:00:14.360Z,1.83
2022-12-29T13:02:47.459Z,1.52
2022-12-29T13:05:29.234Z,1.60
2022-12-29T13:08:05.262Z,1.35
2022-12-29T13:11:10.096Z,1.80
2022-12-29T13:14:01.408Z,2.90
2022-12-29T13:16:46.831Z,1.95
2022-12-29T13:19:51.244Z,1.77
2022-12-29T13:22:45.688Z,1.70
2022-12-29T13:25:22.103Z,2.22
2022-12-29T13:28:28.968Z,1.25
2022-12-29T13:31:00.685Z,2.08
2022-12-29T13:33:33.650Z,1.33
2022-12-29T13:36:35.936Z,1.65
2022-12-29T13:39:21.560Z,2.85
2022-12-29T13:41:56.678Z,1.90
2022-12-29T13:44:36.842Z,2.33
2022-12-29T13:47:25.712Z,2.00
2022-12-29T13:49:52.848Z,2.60
2022-12-29T13:52:51.606Z,2.95
2022-12-29T13:55:28.480Z,2.58
2022-12-29T13:58:04.078Z,2.35
2022-12-29T14:00:54.329Z,1.95
2022-12-29T14:03:32.816Z,2.25
2022-12-29T14:06:26.925Z,2.92
2022-12-29T14:08:56.591Z,2.05
2022-12-29T14:11:34.851Z,2.25
2022-12-29T14:14:24.073Z,1.95
2022-12-29T14:16:51.067Z,1.85
2022-12-29T14:19:39.334Z,2.05
2022-12-29T14:22:06.434Z,1.73
2022-12-29T14:24:36.153Z,1.90
2022-12-29T14:27:22.998Z,1.30
2022-12-29T14:29:51.809Z,1.98
2022-12-29T14:32:21.429Z,2.05
2022-12-29T14:34:52.498Z,1.70
2022-12-29T14:37:31.047Z,2.30
2022-12-29T14:40:27.144Z,1.50
2022-12-29T14:42:56.309Z,1.58
2022-12-29T14:45:34.328Z,1.90
2022-12-29T14:48:01.351Z,1.60
2022-12-29T14:50:30.947Z,1.52
2022-12-29T14:53:04.734Z,1.50
2022-12-29T14:55:56.641Z,1.40
2022-12-29T14:58:39.732Z,2.17
2022-12-29T15:01:35.891Z,1.50
2022-12-29T15:04:26.886Z,2.17
2022-12-29T15:06:54.529Z,2.40
2022-12-29T15:09:37.554Z,1.75
2022-12-29T15:12:31.991Z,2.28
2022-12-29T15:15:00.689Z,1.67
2022-12-29T15:17:29.039Z,1.65
2022-12-29T15:19:57.564Z,2.25
2022-12-29T15:22:25.069Z,1.80
2022-12-29T15:24:53.779Z,2.03
2022-12-29T15:27:26.567Z,1.48
2022-12-29T15:30:12.758Z,1.98
2022-12-29T15:32:48.289Z,2.22
2022-12-29T15:35:32.635Z,1.63
2022-12-29T15:38:00.264Z,1.83
2022-12-29T15:40:32.601Z,0.98
2022-12-29T15:43:14.669Z,1.77
2022-12-29T15:45:41.673Z,1.42
2022-12-29T15:48:18.080Z,1.77
2022-12-29T15:50:45.316Z,1.50
2022-12-29T15:53:13.828Z,1.30
2022-12-29T15:55:42.668Z,1.95
2022-12-29T15:58:23.449Z,1.92
2022-12-29T16:00:59.406Z,1.55
2022-12-29T16:03:35.106Z,1.00
2022-12-29T16:06:29.617Z,1.48
2022-12-29T16:09:01.656Z,1.35
2022-12-29T16:11:35.401Z,1.67
2022-12-29T16:14:03.248Z,1.48
2022-12-29T16:16:33.304Z,1.50
2022-12-29T16:19:00.899Z,2.05
2022-12-29T16:21:31.054Z,1.42
2022-12-29T16:24:02.590Z,1.42
2022-12-29T16:26:30.051Z,1.20
2022-12-29T16:29:01.959Z,1.40
2022-12-29T16:31:53.290Z,1.88
2022-12-29T16:34:38.420Z,1.30
2022-12-29T16:37:32.265Z,1.55
2022-12-29T16:40:50.338Z,1.58
2022-12-29T16:43:29.569Z,1.90
2022-12-29T16:46:02.365Z,1.58
2022-12-29T16:48:31.209Z,1.23
2022-12-29T16:51:05.241Z,1.10
2022-12-29T16:53:39.650Z,2.30
2022-12-29T16:56:10.597Z,1.63
2022-12-29T16:58:38.214Z,1.45
2022-12-29T17:01:06.894Z,1.40
2022-12-29T17:03:40.438Z,1.80
2022-12-29T17:06:14.607Z,1.63
2022-12-29T17:08:42.659Z,1.98
2022-12-29T17:11:44.191Z,1.83
2022-12-29T17:14:19.717Z,1.60
2022-12-29T17:16:47.705Z,1.70
2022-12-29T17:19:19.375Z,2.13
2022-12-29T17:21:46.290Z,3.88
2022-12-29T17:24:17.918Z,2.90
2022-12-29T17:26:47.632Z,3.75
2022-12-29T17:29:30.836Z,2.55
2022-12-29T17:31:58.003Z,1.63
2022-12-29T17:34:24.917Z,1.70
2022-12-29T17:36:51.890Z,2.08
2022-12-29T17:39:18.781Z,2.28
2022-12-29T17:41:45.931Z,2.25
2022-12-29T17:44:20.652Z,1.77
2022-12-29T17:46:48.648Z,2.72
2022-12-29T17:49:17.933Z,1.58
2022-12-29T17:51:46.424Z,2.58
2022-12-29T17:54:21.925Z,1.60
2022-12-29T17:56:49.171Z,2.63
2022-12-29T17:59:16.801Z,2.33
2022-12-29T18:01:45.801Z,2.28
2022-12-29T18:04:14.853Z,2.03
2022-12-29T18:06:42.925Z,1.77
2022-12-29T18:09:10.859Z,1.95
2022-12-29T18:11:42.367Z,2.58
2022-12-29T18:14:16.186Z,2.58
2022-12-29T18:16:43.798Z,2.60
2022-12-29T18:19:10.913Z,1.92
2022-12-29T18:21:42.447Z,2.53
2022-12-29T18:24:15.203Z,2.22
2022-12-29T18:26:42.199Z,2.20
2022-12-29T18:29:09.139Z,1.77
2022-12-29T18:31:37.062Z,2.17
2022-12-29T18:34:13.052Z,2.97
2022-12-29T18:36:39.944Z,3.00
2022-12-29T18:39:06.975Z,2.42
2022-12-29T18:41:34.506Z,2.05
2022-12-29T18:44:01.462Z,2.22
2022-12-29T18:46:28.873Z,2.10
2022-12-29T18:48:55.911Z,2.33
2022-12-29T18:51:25.067Z,2.92
2022-12-29T18:53:54.379Z,2.65
2022-12-29T18:56:22.948Z,2.60
2022-12-29T18:58:50.731Z,2.70
2022-12-29T19:01:23.375Z,3.05
2022-12-29T19:03:50.979Z,2.65
2022-12-29T19:06:17.908Z,2.50
2022-12-29T19:08:44.743Z,3.05
2022-12-29T19:11:11.762Z,2.88
2022-12-29T19:13:38.696Z,2.25
2022-12-29T19:16:08.744Z,2.25
2022-12-29T19:18:45.377Z,2.20
2022-12-29T19:21:15.048Z,2.30
2022-12-29T19:23:42.038Z,2.38
2022-12-29T19:26:27.766Z,2.55
2022-12-29T19:28:54.865Z,2.72
2022-12-29T19:31:21.781Z,2.25
2022-12-29T19:33:48.578Z,3.05
2022-12-29T19:36:17.997Z,2.47
2022-12-29T19:38:46.167Z,2.50
2022-12-29T19:41:14.301Z,3.15
2022-12-29T19:43:41.139Z,2.55
2022-12-29T19:46:09.781Z,3.00
2022-12-29T19:48:36.730Z,2.50
2022-12-29T19:51:05.307Z,3.22
2022-12-29T19:53:32.245Z,2.65
2022-12-29T19:56:03.435Z,3.22
2022-12-29T19:58:31.932Z,2.53
2022-12-29T20:01:08.634Z,3.65
2022-12-29T20:03:35.919Z,2.90
2022-12-29T20:06:03.622Z,3.22
2022-12-29T20:08:30.611Z,2.30
2022-12-29T20:10:59.502Z,2.63
2022-12-29T20:13:26.585Z,2.30
2022-12-29T20:15:58.440Z,2.13
2022-12-29T20:18:29.214Z,3.67
2022-12-29T20:21:07.876Z,2.63
2022-12-29T20:23:35.537Z,2.53
2022-12-29T20:26:02.543Z,2.47
2022-12-29T20:28:29.971Z,3.05
2022-12-29T20:30:58.041Z,3.13
2022-12-29T20:33:25.081Z,2.35
2022-12-29T20:35:52.291Z,3.42
2022-12-29T20:38:19.540Z,3.80
2022-12-29T20:40:47.165Z,2.95
2022-12-29T20:43:15.549Z,2.92
2022-12-29T20:45:42.948Z,3.20
2022-12-29T20:48:10.052Z,3.92
2022-12-29T20:50:37.175Z,3.38
2022-12-29T20:53:04.030Z,2.88
2022-12-29T20:55:31.002Z,3.25
2022-12-29T20:58:23.154Z,2.47
2022-12-29T21:00:44.949Z,2.97
2022-12-29T21:03:11.992Z,3.17
2022-12-29T21:05:38.998Z,2.92
2022-12-29T21:08:06.429Z,3.22
2022-12-29T21:10:33.236Z,3.40
2022-12-29T21:13:01.655Z,3.70
2022-12-29T21:15:30.024Z,4.65
2022-12-29T21:17:57.210Z,3.00
2022-12-29T21:20:31.729Z,3.45
2022-12-29T21:23:00.698Z,3.47
2022-12-29T21:25:36.865Z,3.83
2022-12-29T21:28:08.749Z,4.72
2022-12-29T21:30:35.988Z,3.50
2022-12-29T21:33:03.063Z,3.60
2022-12-29T21:35:30.381Z,2.38
2022-12-29T21:37:57.390Z,3.30
2022-12-29T21:40:24.468Z,3.35
2022-12-29T21:42:51.386Z,3.08
2022-12-29T21:45:27.901Z,3.35
2022-12-29T21:48:16.742Z,4.38
2022-12-29T21:51:04.274Z,3.70
2022-12-29T21:53:40.351Z,4.35
2022-12-29T21:56:08.236Z,3.88
2022-12-29T21:58:55.712Z,2.80
2022-12-29T22:01:42.588Z,3.45
2022-12-29T22:04:31.128Z,3.35
2022-12-29T22:07:16.899Z,2.88
2022-12-29T22:10:02.488Z,3.13
2022-12-29T22:12:49.653Z,3.30
2022-12-29T22:15:26.184Z,4.63
2022-12-29T22:17:54.173Z,4.53
2022-12-29T22:20:23.843Z,3.47
2022-12-29T22:22:50.771Z,3.67
2022-12-29T22:25:18.047Z,2.63
2022-12-29T22:27:45.250Z,4.72
2022-12-29T22:30:12.664Z,3.35
2022-12-29T22:32:43.208Z,2.92
2022-12-29T22:35:12.137Z,3.90
2022-12-29T22:37:41.238Z,2.58
2022-12-29T22:40:10.971Z,3.17
2022-12-29T22:42:39.064Z,3.42
2022-12-29T22:45:06.772Z,3.15
2022-12-29T22:47:33.952Z,3.17
2022-12-29T22:50:00.828Z,3.00
2022-12-29T22:52:27.707Z,4.10
2022-12-29T22:54:54.877Z,3.60
2022-12-29T22:57:21.763Z,2.78
2022-12-29T22:59:48.672Z,2.88
2022-12-29T23:02:15.700Z,4.03
2022-12-29T23:07:29.559Z,4.32
2022-12-29T23:09:56.401Z,2.63
2022-12-29T23:12:23.331Z,3.33
2022-12-29T23:14:50.215Z,3.13
2022-12-29T23:17:18.081Z,4.22
2022-12-29T23:19:44.981Z,3.53
2022-12-29T23:22:11.833Z,3.17
2022-12-29T23:24:38.739Z,2.72
2022-12-29T23:27:07.632Z,2.72
2022-12-29T23:29:34.693Z,3.80
2022-12-29T23:32:01.527Z,4.13
2022-12-29T23:34:28.386Z,3.53
2022-12-29T23:36:55.256Z,3.97
2022-12-29T23:39:26.348Z,3.47
2022-12-29T23:41:53.303Z,3.47
2022-12-29T23:44:20.277Z,3.35
2022-12-29T23:46:47.136Z,2.55
2022-12-29T23:49:14.074Z,2.55
2022-12-29T23:51:40.891Z,3.53
2022-12-29T23:54:07.801Z,3.45
2022-12-29T23:56:34.667Z,5.13
2022-12-29T23:59:05.112Z,4.35
